Terminal Aerodrome Forecast
Issued by NWS

Home | Current Version | Previous Version | Text Only | Print | Product List | Glossary On
Versions: 1 2 3 4 5 6 7 8 9 10 11 12 13 14 15 16 17
000
FTUS43 KGLD 070825 AAA
TAFMCK
TAF AMD
KMCK 070825Z 0708/0806 05008KT 6SM -SN OVC070
     FM071000 05010G16KT 2SM -SN OVC015
      TEMPO 0710/0712 05011KT 1SM -SN BKN007
     FM071400 03011KT 6SM -SN OVC020
     FM071930 36011KT P6SM VCSH OVC035
     FM080200 30006KT P6SM SCT050=

USA.gov is the U.S. government's official web portal to all federal, state and local government web resources and services.